createdAt,value
2018-06-03T00:02:36.593Z,26.1
2018-06-03T00:07:34.408Z,26.1
2018-06-03T00:12:32.499Z,25.9
2018-06-03T00:17:30.440Z,26
2018-06-03T00:22:28.351Z,26
2018-06-03T00:27:26.455Z,25.9
2018-06-03T00:32:24.432Z,26
2018-06-03T00:37:22.310Z,25.9
2018-06-03T00:42:20.249Z,25.9
2018-06-03T00:47:18.205Z,25.9
2018-06-03T00:52:16.202Z,25.7
2018-06-03T00:57:14.109Z,25.8
2018-06-03T01:02:11.928Z,25.8
2018-06-03T01:07:10.065Z,25.8
2018-06-03T01:12:07.269Z,25.7
2018-06-03T01:17:05.156Z,25.7
2018-06-03T01:22:03.023Z,25.6
2018-06-03T01:27:00.635Z,25.6
2018-06-03T01:31:58.429Z,25.6
2018-06-03T01:36:56.045Z,25.5
2018-06-03T01:41:54.019Z,25.5
2018-06-03T01:46:51.937Z,25.4
2018-06-03T01:51:49.833Z,25.4
2018-06-03T01:56:47.782Z,25.4
2018-06-03T02:01:45.890Z,25.4
2018-06-03T02:06:43.790Z,25.3
2018-06-03T02:11:41.132Z,25.1
2018-06-03T02:16:38.709Z,25.2
2018-06-03T02:21:36.541Z,25.2
2018-06-03T02:26:34.541Z,25.2
2018-06-03T02:31:31.941Z,25.1
2018-06-03T02:36:29.750Z,25.1
2018-06-03T02:41:27.729Z,25.1
2018-06-03T02:46:25.602Z,25.1
2018-06-03T02:51:23.167Z,25
2018-06-03T02:56:21.200Z,25
2018-06-03T03:01:19.155Z,25
2018-06-03T03:06:17.246Z,25
2018-06-03T03:11:14.913Z,25
2018-06-03T03:16:12.810Z,24.9
2018-06-03T03:21:10.795Z,24.9
2018-06-03T03:26:08.632Z,24.9
2018-06-03T03:31:06.426Z,24.9
2018-06-03T03:36:04.177Z,24.9
2018-06-03T03:41:02.382Z,24.9
2018-06-03T03:46:00.321Z,24.9
2018-06-03T03:50:58.348Z,24.9
2018-06-03T03:55:56.374Z,24.9
2018-06-03T04:00:54.369Z,24.9
2018-06-03T04:05:52.319Z,24.8
2018-06-03T04:10:50.182Z,24.8
2018-06-03T04:15:47.523Z,24.9
2018-06-03T04:20:45.730Z,24.9
2018-06-03T04:25:43.699Z,24.9
2018-06-03T04:30:41.632Z,24.9
2018-06-03T04:35:38.975Z,24.9
2018-06-03T04:40:36.951Z,24.9
2018-06-03T04:45:35.000Z,24.9
2018-06-03T04:50:33.183Z,24.9
2018-06-03T04:55:31.512Z,24.9
2018-06-03T05:00:29.348Z,24.9
2018-06-03T05:05:26.979Z,24.9
2018-06-03T05:10:25.135Z,24.9
2018-06-03T05:15:22.420Z,24.9
2018-06-03T05:20:20.338Z,24.9
2018-06-03T05:25:18.368Z,24.9
2018-06-03T05:30:16.440Z,24.9
2018-06-03T05:35:14.384Z,24.9
2018-06-03T05:40:12.322Z,24.9
2018-06-03T05:45:10.195Z,24.9
2018-06-03T05:50:08.143Z,24.9
2018-06-03T05:55:05.947Z,24.8
2018-06-03T06:00:03.970Z,24.8
2018-06-03T06:05:01.487Z,24.8
2018-06-03T06:09:59.363Z,24.8
2018-06-03T06:14:57.394Z,24.9
2018-06-03T06:19:55.399Z,25
2018-06-03T06:24:53.602Z,25
2018-06-03T06:29:51.653Z,25.1
2018-06-03T06:34:49.905Z,25.2
2018-06-03T06:39:48.030Z,25.3
2018-06-03T06:44:46.185Z,25.4
2018-06-03T06:49:44.247Z,25.5
2018-06-03T06:54:42.551Z,25.5
2018-06-03T06:59:40.596Z,25.6
2018-06-03T07:04:38.674Z,25.6
2018-06-03T07:09:36.766Z,25.7
2018-06-03T07:14:34.904Z,25.7
2018-06-03T07:19:33.051Z,25.7
2018-06-03T07:24:30.828Z,25.6
2018-06-03T07:29:28.856Z,25.6
2018-06-03T07:34:26.149Z,25.6
2018-06-03T07:39:24.035Z,25.5
2018-06-03T07:44:22.011Z,25.5
2018-06-03T07:49:20.190Z,25.5
2018-06-03T07:54:18.323Z,25.5
2018-06-03T07:59:16.889Z,25.5
2018-06-03T08:04:14.897Z,25.5
2018-06-03T08:09:13.097Z,25.5
2018-06-03T08:14:11.701Z,25.5
2018-06-03T08:19:09.524Z,25.6
2018-06-03T08:24:07.906Z,25.5
2018-06-03T08:29:06.213Z,25.6
2018-06-03T08:34:04.677Z,25.6
2018-06-03T08:39:03.296Z,25.6
2018-06-03T08:44:01.608Z,25.6
2018-06-03T08:48:59.613Z,25.6
2018-06-03T08:53:57.982Z,25.6
2018-06-03T08:58:56.274Z,25.7
2018-06-03T09:03:54.368Z,25.7
2018-06-03T09:08:52.603Z,25.7
2018-06-03T09:13:49.874Z,25.7
2018-06-03T09:18:48.292Z,25.6
2018-06-03T09:23:46.630Z,25.8
2018-06-03T09:28:44.324Z,25.8
2018-06-03T09:33:42.557Z,25.9
2018-06-03T09:38:40.864Z,25.9
2018-06-03T09:43:38.873Z,26
2018-06-03T09:48:37.237Z,26
2018-06-03T09:53:35.301Z,26
2018-06-03T09:58:33.455Z,26.1
2018-06-03T10:03:31.634Z,26.2
2018-06-03T10:08:29.813Z,26.2
2018-06-03T10:13:27.388Z,26.3
2018-06-03T10:18:25.580Z,26.4
2018-06-03T10:23:23.626Z,26.5
2018-06-03T10:28:21.630Z,26.6
2018-06-03T10:33:19.835Z,26.6
2018-06-03T10:38:18.034Z,26.9
2018-06-03T10:43:16.090Z,26.9
2018-06-03T10:48:14.360Z,27.1
2018-06-03T10:53:12.399Z,27.4
2018-06-03T10:58:10.622Z,27.4
2018-06-03T11:03:08.380Z,27.6
2018-06-03T11:08:06.405Z,27.5
2018-06-03T11:13:04.449Z,27.7
2018-06-03T11:18:02.536Z,27.7
2018-06-03T11:23:00.776Z,27.6
2018-06-03T11:27:58.658Z,27.7
2018-06-03T11:32:56.949Z,27.8
2018-06-03T11:37:55.070Z,28
2018-06-03T11:42:53.080Z,27.9
2018-06-03T11:47:50.763Z,28
2018-06-03T11:52:49.385Z,28.1
2018-06-03T11:57:48.723Z,28.2
2018-06-03T12:02:47.350Z,28.4
2018-06-03T12:07:45.621Z,28.3
2018-06-03T12:12:43.387Z,28.5
2018-06-03T12:17:40.975Z,28.4
2018-06-03T12:22:38.908Z,28.6
2018-06-03T12:27:37.141Z,28.6
2018-06-03T12:32:35.550Z,28.6
2018-06-03T12:37:33.899Z,28.6
2018-06-03T12:42:31.656Z,28.8
2018-06-03T12:47:29.680Z,28.9
2018-06-03T12:52:27.289Z,28.9
2018-06-03T12:57:25.784Z,28.7
2018-06-03T13:02:23.774Z,28.8
2018-06-03T13:07:21.755Z,28.7
2018-06-03T13:12:20.107Z,28.7
2018-06-03T13:17:17.978Z,28.6
2018-06-03T13:22:16.262Z,28.6
2018-06-03T13:27:14.742Z,28.5
2018-06-03T13:32:13.123Z,28.3
2018-06-03T13:37:11.163Z,28.3
2018-06-03T13:42:09.399Z,28.2
2018-06-03T13:47:07.392Z,28.1
2018-06-03T13:52:05.718Z,27.9
2018-06-03T13:57:03.731Z,27.8
2018-06-03T14:02:01.768Z,27.8
2018-06-03T14:06:59.767Z,27.8
2018-06-03T14:11:57.760Z,27.6
2018-06-03T14:16:55.750Z,27.5
2018-06-03T14:21:53.768Z,27.3
2018-06-03T14:26:52.027Z,27.4
2018-06-03T14:31:50.088Z,27.3
2018-06-03T14:36:48.007Z,27.2
2018-06-03T14:41:45.989Z,27.1
2018-06-03T14:46:43.916Z,27.1
2018-06-03T14:51:42.025Z,26.9
2018-06-03T14:56:40.155Z,26.8
2018-06-03T15:01:38.060Z,26.9
2018-06-03T15:06:36.184Z,26.7
2018-06-03T15:11:34.258Z,26.7
2018-06-03T15:16:32.370Z,26.6
2018-06-03T15:21:30.295Z,26.7
2018-06-03T15:26:28.401Z,26.7
2018-06-03T15:31:26.364Z,26.5
2018-06-03T15:36:24.453Z,26.6
2018-06-03T15:41:22.233Z,26.5
2018-06-03T15:46:20.420Z,26.5
2018-06-03T15:51:18.193Z,26.6
2018-06-03T15:56:16.382Z,26.6
2018-06-03T16:01:14.121Z,26.5
2018-06-03T16:06:12.082Z,26.6
2018-06-03T16:11:10.098Z,26.5
2018-06-03T16:16:08.188Z,26.4
2018-06-03T16:21:06.349Z,26.4
2018-06-03T16:26:04.430Z,26.4
2018-06-03T16:31:02.368Z,26.4
2018-06-03T16:36:00.285Z,26.5
2018-06-03T16:40:58.240Z,26.3
2018-06-03T16:45:56.521Z,26.3
2018-06-03T16:50:54.427Z,26.4
2018-06-03T16:55:52.735Z,26.4
2018-06-03T17:00:50.446Z,26.4
2018-06-03T17:05:48.363Z,26.4
2018-06-03T17:10:46.293Z,26.4
2018-06-03T17:15:44.366Z,26.3
2018-06-03T17:20:42.464Z,26.3
2018-06-03T17:25:40.567Z,26.3
2018-06-03T17:30:38.012Z,26.3
2018-06-03T17:35:36.097Z,26.3
2018-06-03T17:40:34.252Z,26.1
2018-06-03T17:45:32.194Z,26.1
2018-06-03T17:50:30.073Z,26.2
2018-06-03T17:55:28.199Z,26.2
2018-06-03T18:00:26.353Z,26.1
2018-06-03T18:05:24.403Z,26.1
2018-06-03T18:10:22.735Z,26
2018-06-03T18:15:20.374Z,25.9
2018-06-03T18:20:18.457Z,25.9
2018-06-03T18:25:16.395Z,26
2018-06-03T18:30:14.488Z,25.9
2018-06-03T18:35:12.261Z,25.9
2018-06-03T18:40:09.839Z,25.9
2018-06-03T18:45:07.850Z,25.8
2018-06-03T18:50:05.950Z,25.8
2018-06-03T18:55:04.014Z,25.7
2018-06-03T19:00:01.539Z,25.7
2018-06-03T19:04:59.515Z,25.7
2018-06-03T19:09:57.416Z,25.6
2018-06-03T19:14:55.385Z,25.6
2018-06-03T19:19:53.491Z,25.5
2018-06-03T19:24:51.360Z,25.5
2018-06-03T19:29:49.021Z,25.4
2018-06-03T19:34:46.769Z,25.4
2018-06-03T19:39:45.020Z,25.3
2018-06-03T19:44:43.171Z,25.3
2018-06-03T19:49:40.994Z,25.3
2018-06-03T19:54:38.708Z,25.2
2018-06-03T19:59:36.864Z,25.2
2018-06-03T20:04:34.800Z,25.1
2018-06-03T20:09:32.786Z,25.1
2018-06-03T20:14:30.256Z,25
2018-06-03T20:19:28.199Z,25
2018-06-03T20:24:26.158Z,24.9
2018-06-03T20:29:24.022Z,24.9
2018-06-03T20:34:21.990Z,24.8
2018-06-03T20:39:20.009Z,24.8
2018-06-03T20:44:18.074Z,24.7
2018-06-03T20:49:16.166Z,24.7
2018-06-03T20:54:13.849Z,24.6
2018-06-03T20:59:11.641Z,24.6
2018-06-03T21:04:09.569Z,24.5
2018-06-03T21:09:07.626Z,24.5
2018-06-03T21:14:05.534Z,24.4
2018-06-03T21:19:03.119Z,24.4
2018-06-03T21:24:01.462Z,24.3
2018-06-03T21:28:59.342Z,24.3
2018-06-03T21:33:57.175Z,24.2
2018-06-03T21:38:55.102Z,24.2
2018-06-03T21:43:53.152Z,24.1
2018-06-03T21:48:50.906Z,24.1
2018-06-03T21:53:48.829Z,24
2018-06-03T21:58:46.682Z,24
2018-06-03T22:03:44.614Z,23.9
2018-06-03T22:08:42.502Z,23.9
2018-06-03T22:13:40.354Z,23.8
2018-06-03T22:18:38.256Z,23.8
2018-06-03T22:23:36.281Z,23.7
2018-06-03T22:28:33.913Z,23.6
2018-06-03T22:33:31.726Z,23.5
2018-06-03T22:38:29.785Z,23.6
2018-06-03T22:43:27.729Z,23.5
2018-06-03T22:48:25.163Z,23.4
2018-06-03T22:53:23.132Z,23.4
2018-06-03T22:58:21.226Z,23.4
2018-06-03T23:03:19.293Z,23.2
2018-06-03T23:08:17.324Z,23.2
2018-06-03T23:13:15.406Z,23.2
2018-06-03T23:18:12.850Z,23.1
2018-06-03T23:23:11.026Z,23.1
2018-06-03T23:28:08.906Z,23
2018-06-03T23:33:06.987Z,22.9
2018-06-03T23:38:04.886Z,23
2018-06-03T23:43:02.752Z,22.8
2018-06-03T23:48:01.022Z,22.9
2018-06-03T23:52:58.984Z,22.9
2018-06-03T23:57:56.611Z,22.7
